Time;durP1;ratioP1;P1;durP2;ratioP2;P2;SDS_P1;SDS_P2;PMS_P1;PMS_P2;Temp;Humidity;BMP_temperature;BMP_pressure;BME280_temperature;BME280_humidity;BME280_pressure;Samples;Min_cycle;Max_cycle;Signal;HPM_P1;HPM_P2
2023/06/07 00:01:05;;;;;;;1.70;1.30;;;18.10;62.10;;;;;;5022173;28;20066;-59
2023/06/07 00:03:32;;;;;;;4.68;1.83;;;18.10;62.20;;;;;;5029763;28;20064;-63
2023/06/07 00:06:00;;;;;;;3.00;1.40;;;18.00;62.20;;;;;;5029574;28;20373;-63
2023/06/07 00:08:29;;;;;;;2.55;1.73;;;18.00;62.20;;;;;;5034747;28;20022;-59
2023/06/07 00:10:58;;;;;;;2.85;1.42;;;18.00;62.20;;;;;;5023053;28;20029;-58
2023/06/07 00:13:24;;;;;;;3.13;1.55;;;18.00;62.30;;;;;;5028956;28;20120;-63
2023/06/07 00:15:50;;;;;;;2.53;1.48;;;17.90;62.40;;;;;;5028628;28;20113;-63
2023/06/07 00:18:19;;;;;;;2.45;1.80;;;17.80;62.50;;;;;;5029605;28;20092;-63
2023/06/07 00:20:45;;;;;;;1.80;1.45;;;17.80;62.70;;;;;;5039919;28;20071;-63
2023/06/07 00:23:14;;;;;;;4.10;1.70;;;17.70;62.80;;;;;;5018597;28;20037;-63
2023/06/07 00:25:40;;;;;;;6.20;1.85;;;17.60;62.90;;;;;;5030502;28;20034;-59
2023/06/07 00:28:06;;;;;;;3.00;1.83;;;17.60;63.70;;;;;;5036036;28;20032;-63
2023/06/07 00:30:31;;;;;;;1.98;1.38;;;17.50;63.30;;;;;;5037969;28;20072;-63
2023/06/07 00:32:57;;;;;;;3.65;2.03;;;17.40;63.40;;;;;;5029661;28;20041;-63
2023/06/07 00:35:23;;;;;;;3.35;1.15;;;17.50;63.40;;;;;;5047342;28;20119;-63
2023/06/07 00:37:48;;;;;;;2.05;1.48;;;17.50;63.50;;;;;;5029984;28;20625;-58
2023/06/07 00:40:14;;;;;;;3.83;1.48;;;17.40;63.50;;;;;;5035736;28;20492;-63
2023/06/07 00:42:40;;;;;;;3.08;1.67;;;17.30;63.50;;;;;;5029418;28;20068;-63
2023/06/07 00:45:06;;;;;;;4.63;2.13;;;17.30;63.60;;;;;;5026441;28;20025;-63
2023/06/07 00:47:33;;;;;;;7.13;1.27;;;17.30;63.80;;;;;;5026083;28;20467;-59
2023/06/07 00:49:59;;;;;;;3.47;1.90;;;17.30;64.10;;;;;;5023019;28;20168;-58
2023/06/07 00:52:26;;;;;;;2.55;1.50;;;17.20;64.20;;;;;;5025278;28;20511;-59
2023/06/07 00:54:52;;;;;;;3.33;2.05;;;17.20;64.30;;;;;;5029138;28;20543;-63
2023/06/07 00:57:18;;;;;;;6.90;2.60;;;17.10;64.40;;;;;;5032905;28;20029;-63
2023/06/07 00:59:45;;;;;;;1.80;1.50;;;17.00;64.60;;;;;;5024712;28;20044;-63
2023/06/07 01:02:14;;;;;;;4.05;1.65;;;17.00;64.80;;;;;;5025170;28;20075;-63
2023/06/07 01:04:42;;;;;;;2.88;1.60;;;16.90;64.90;;;;;;5028385;28;20029;-59
2023/06/07 01:07:08;;;;;;;3.38;1.70;;;16.90;65.00;;;;;;5032126;28;20029;-58
2023/06/07 01:09:35;;;;;;;4.43;1.40;;;16.90;64.90;;;;;;5035912;28;20472;-58
2023/06/07 01:12:02;;;;;;;2.22;1.23;;;16.90;65.00;;;;;;5031590;28;20057;-63
2023/06/07 01:14:28;;;;;;;3.30;2.05;;;16.90;65.00;;;;;;5033001;28;20448;-58
2023/06/07 01:16:56;;;;;;;2.83;1.20;;;17.00;65.00;;;;;;5022622;28;20392;-59
2023/06/07 01:19:27;;;;;;;3.50;1.38;;;17.00;64.90;;;;;;5026523;28;20091;-63
2023/06/07 01:22:00;;;;;;;3.72;1.38;;;17.10;64.80;;;;;;5041118;28;20026;-63
2023/06/07 01:24:29;;;;;;;2.85;1.48;;;17.10;64.70;;;;;;5035240;28;20021;-63
2023/06/07 01:27:00;;;;;;;2.25;1.20;;;17.00;64.70;;;;;;5040281;28;20032;-63
2023/06/07 01:29:26;;;;;;;2.92;1.15;;;17.00;64.80;;;;;;5032662;28;20083;-63
2023/06/07 01:31:54;;;;;;;1.75;1.30;;;17.00;64.70;;;;;;5042825;28;20480;-59
2023/06/07 01:34:21;;;;;;;1.23;1.10;;;17.00;64.60;;;;;;5036869;28;20025;-58
2023/06/07 01:36:50;;;;;;;2.30;1.42;;;17.00;64.70;;;;;;5030191;28;20049;-59
2023/06/07 01:39:18;;;;;;;1.13;1.02;;;17.00;64.70;;;;;;5030000;28;20037;-63
2023/06/07 01:41:46;;;;;;;3.47;1.10;;;17.00;64.70;;;;;;5033390;28;20060;-63
2023/06/07 01:44:13;;;;;;;3.50;1.70;;;16.90;64.90;;;;;;5034337;28;20109;-63
2023/06/07 01:46:40;;;;;;;3.28;1.30;;;16.90;65.00;;;;;;5037742;28;20428;-63
2023/06/07 01:49:05;;;;;;;2.38;1.58;;;16.90;65.00;;;;;;5031933;28;20068;-63
2023/06/07 01:51:32;;;;;;;3.20;1.10;;;16.90;65.00;;;;;;5030966;28;20061;-63
2023/06/07 01:53:59;;;;;;;2.30;1.25;;;16.80;65.00;;;;;;5025774;28;20056;-63
2023/06/07 01:56:37;;;;;;;2.03;1.08;;;16.80;65.10;;;;;;5033053;28;20040;-58
2023/06/07 01:59:36;;;;;;;2.42;1.33;;;16.70;65.70;;;;;;5031857;28;20023;-59
2023/06/07 02:02:25;;;;;;;1.45;1.33;;;16.70;65.30;;;;;;5024146;28;20038;-59
2023/06/07 02:04:57;;;;;;;1.70;1.35;;;16.60;65.50;;;;;;5026443;28;20118;-63
2023/06/07 02:07:27;;;;;;;1.95;1.02;;;16.50;65.70;;;;;;5020433;28;20032;-63
2023/06/07 02:09:53;;;;;;;6.38;1.30;;;16.50;66.00;;;;;;5028457;28;20026;-63
2023/06/07 02:12:20;;;;;;;1.58;1.42;;;16.40;66.00;;;;;;5031390;28;20091;-63
2023/06/07 02:14:52;;;;;;;2.30;1.05;;;16.40;66.10;;;;;;5019386;28;20037;-63
2023/06/07 02:17:18;;;;;;;3.30;1.60;;;16.30;66.10;;;;;;5030384;28;20021;-63
2023/06/07 02:19:44;;;;;;;2.00;1.25;;;16.30;66.10;;;;;;5040409;28;20309;-63
2023/06/07 02:22:10;;;;;;;2.58;1.52;;;16.30;66.20;;;;;;5028357;28;20109;-63
2023/06/07 02:24:37;;;;;;;7.47;1.48;;;16.30;66.20;;;;;;5030753;28;20160;-63
2023/06/07 02:27:03;;;;;;;1.65;1.00;;;16.40;66.50;;;;;;5026414;28;20532;-63
2023/06/07 02:29:29;;;;;;;2.15;1.73;;;16.30;66.30;;;;;;5040491;28;20096;-63
2023/06/07 02:31:57;;;;;;;3.17;1.17;;;16.30;66.40;;;;;;5037240;28;20054;-63
2023/06/07 02:34:24;;;;;;;3.65;1.25;;;16.30;66.50;;;;;;5030217;28;20059;-63
2023/06/07 02:36:50;;;;;;;3.28;1.70;;;16.20;66.50;;;;;;5035219;28;20144;-58
2023/06/07 02:39:16;;;;;;;1.90;1.48;;;16.20;66.60;;;;;;5032522;28;20132;-63
2023/06/07 02:41:41;;;;;;;1.67;1.13;;;16.20;66.70;;;;;;5034820;28;20026;-63
2023/06/07 02:44:07;;;;;;;1.88;1.58;;;16.20;66.80;;;;;;5017709;28;20556;-63
2023/06/07 02:46:33;;;;;;;2.33;1.65;;;16.20;66.80;;;;;;5038653;28;20484;-59
2023/06/07 02:48:58;;;;;;;3.03;1.70;;;16.10;66.70;;;;;;5035337;28;20030;-58
2023/06/07 02:51:25;;;;;;;1.88;1.17;;;16.10;66.90;;;;;;5031864;28;20104;-58
2023/06/07 02:53:50;;;;;;;5.80;1.85;;;16.00;67.00;;;;;;5027216;28;20041;-63
2023/06/07 02:56:16;;;;;;;1.73;1.08;;;16.00;67.10;;;;;;5035844;28;20037;-59
2023/06/07 02:58:42;;;;;;;6.70;1.92;;;16.00;67.20;;;;;;5032388;28;20863;-58
2023/06/07 03:01:08;;;;;;;1.98;1.10;;;16.00;67.10;;;;;;5021618;28;20034;-58
2023/06/07 03:03:37;;;;;;;4.07;1.70;;;15.90;67.20;;;;;;5029599;28;20026;-59
2023/06/07 03:06:09;;;;;;;2.50;1.70;;;15.90;67.20;;;;;;5032220;28;20947;-58
2023/06/07 03:08:35;;;;;;;3.30;1.40;;;15.90;67.30;;;;;;5030762;28;20050;-58
2023/06/07 03:11:01;;;;;;;2.53;1.52;;;15.90;67.40;;;;;;5030530;28;20033;-58
2023/06/07 03:13:27;;;;;;;3.55;1.20;;;15.90;67.50;;;;;;5036635;28;20052;-59
2023/06/07 03:15:53;;;;;;;4.70;1.98;;;15.90;67.50;;;;;;5030153;28;20511;-63
2023/06/07 03:18:19;;;;;;;2.58;1.92;;;15.90;67.60;;;;;;5027651;28;20520;-63
2023/06/07 03:20:47;;;;;;;3.75;1.70;;;15.80;67.70;;;;;;5031235;28;20036;-63
2023/06/07 03:23:13;;;;;;;3.22;1.77;;;15.80;67.70;;;;;;5033364;28;20026;-63
2023/06/07 03:25:39;;;;;;;6.25;1.60;;;15.80;67.80;;;;;;5032100;28;20089;-63
2023/06/07 03:28:04;;;;;;;1.98;1.35;;;15.90;67.80;;;;;;5037225;28;20171;-63
2023/06/07 03:30:30;;;;;;;4.00;1.98;;;15.90;67.80;;;;;;5028349;28;20037;-63
2023/06/07 03:32:56;;;;;;;1.70;1.10;;;15.90;67.70;;;;;;5033190;28;20064;-63
2023/06/07 03:35:21;;;;;;;1.33;0.80;;;15.80;67.70;;;;;;5029781;28;20033;-63
2023/06/07 03:37:48;;;;;;;1.88;1.17;;;15.80;67.70;;;;;;5031836;28;20053;-64
2023/06/07 03:40:13;;;;;;;2.97;1.55;;;15.80;67.80;;;;;;5035281;28;20017;-59
2023/06/07 03:42:39;;;;;;;2.40;1.25;;;15.70;67.90;;;;;;5025032;28;20079;-59
2023/06/07 03:45:06;;;;;;;3.13;1.65;;;15.70;68.00;;;;;;5021828;28;20112;-59
2023/06/07 03:47:32;;;;;;;1.63;1.20;;;15.60;68.10;;;;;;5026463;28;20033;-62
2023/06/07 03:49:58;;;;;;;2.55;1.23;;;15.60;68.20;;;;;;5024228;28;20064;-59
2023/06/07 03:52:24;;;;;;;2.65;1.38;;;15.60;68.30;;;;;;5030065;28;20065;-59
2023/06/07 03:54:51;;;;;;;1.30;0.98;;;15.50;68.30;;;;;;5034102;28;20034;-59
2023/06/07 03:57:16;;;;;;;3.95;1.83;;;15.60;68.40;;;;;;5032535;28;20108;-58
2023/06/07 03:59:42;;;;;;;2.42;1.48;;;15.60;68.40;;;;;;5031955;28;20054;-59
2023/06/07 04:02:08;;;;;;;2.95;1.67;;;15.60;68.40;;;;;;5032912;28;20065;-58
2023/06/07 04:04:34;;;;;;;4.50;1.80;;;15.60;68.40;;;;;;5032000;28;20030;-59
2023/06/07 04:07:03;;;;;;;3.03;1.67;;;15.60;68.50;;;;;;5031255;28;20021;-59
2023/06/07 04:09:29;;;;;;;2.20;1.38;;;15.60;68.40;;;;;;5014255;28;20032;-59
2023/06/07 04:11:55;;;;;;;2.45;1.30;;;15.50;68.50;;;;;;5014353;28;20037;-64
2023/06/07 04:14:21;;;;;;;7.95;1.10;;;15.50;68.60;;;;;;5020841;28;20494;-62
2023/06/07 04:16:47;;;;;;;2.85;1.50;;;15.50;68.60;;;;;;5024051;28;20025;-62
2023/06/07 04:19:13;;;;;;;3.22;1.60;;;15.50;69.20;;;;;;5026839;28;20443;-64
2023/06/07 04:21:47;;;;;;;3.28;1.88;;;15.50;68.50;;;;;;5026327;28;20037;-64
2023/06/07 04:24:19;;;;;;;3.40;1.70;;;15.50;68.80;;;;;;5017273;28;20040;-64
2023/06/07 04:26:47;;;;;;;3.78;1.40;;;15.40;68.80;;;;;;5012333;28;20095;-64
2023/06/07 04:29:14;;;;;;;4.28;1.50;;;15.40;68.90;;;;;;5030448;28;20480;-64
2023/06/07 04:31:41;;;;;;;5.45;1.58;;;15.40;69.00;;;;;;5026786;28;20030;-64
2023/06/07 04:34:09;;;;;;;3.17;1.40;;;15.40;69.10;;;;;;5029848;28;20124;-60
2023/06/07 04:36:37;;;;;;;2.90;1.33;;;15.40;69.10;;;;;;5030347;28;20128;-62
2023/06/07 04:39:05;;;;;;;5.22;1.90;;;15.40;69.30;;;;;;5030974;28;20025;-62
2023/06/07 04:41:32;;;;;;;3.38;1.77;;;15.40;69.30;;;;;;5027972;28;20022;-62
2023/06/07 04:44:03;;;;;;;2.80;1.30;;;15.40;69.40;;;;;;5031886;28;20419;-62
2023/06/07 04:46:30;;;;;;;4.25;1.20;;;15.40;69.30;;;;;;5021581;28;20025;-62
2023/06/07 04:48:56;;;;;;;3.85;2.15;;;15.50;69.30;;;;;;5028384;28;20022;-58
2023/06/07 04:51:23;;;;;;;6.68;2.17;;;15.40;69.40;;;;;;5026541;28;20116;-62
2023/06/07 04:53:49;;;;;;;1.48;1.35;;;15.40;69.40;;;;;;5029131;28;20548;-62
2023/06/07 04:56:14;;;;;;;6.75;1.65;;;15.50;69.50;;;;;;5028451;28;20091;-62
2023/06/07 04:58:40;;;;;;;3.22;2.03;;;15.50;69.50;;;;;;5031410;28;20447;-63
2023/06/07 05:01:09;;;;;;;3.28;1.30;;;15.60;69.40;;;;;;5026759;28;20030;-62
2023/06/07 05:03:38;;;;;;;4.90;1.83;;;15.70;69.20;;;;;;5033906;28;20423;-62
2023/06/07 05:06:04;;;;;;;2.05;1.70;;;15.80;69.10;;;;;;5033232;28;20026;-58
2023/06/07 05:08:30;;;;;;;6.00;1.65;;;15.90;68.90;;;;;;5031869;28;20493;-58
2023/06/07 05:10:56;;;;;;;6.07;1.85;;;15.90;68.80;;;;;;5035324;28;20073;-58
2023/06/07 05:13:22;;;;;;;3.78;0.88;;;16.00;68.80;;;;;;5031149;28;20061;-57
2023/06/07 05:15:50;;;;;;;1.15;1.02;;;16.00;68.70;;;;;;5027352;28;20271;-58
2023/06/07 05:18:19;;;;;;;6.60;1.80;;;16.10;68.70;;;;;;5026536;28;20041;-62
2023/06/07 05:20:48;;;;;;;2.75;1.63;;;16.10;68.60;;;;;;5038131;28;20087;-62
2023/06/07 05:23:16;;;;;;;2.90;1.20;;;16.20;68.60;;;;;;5038421;28;20025;-62
2023/06/07 05:25:44;;;;;;;3.05;1.35;;;16.20;68.50;;;;;;5028668;28;20037;-62
2023/06/07 05:28:10;;;;;;;2.13;1.45;;;16.30;68.40;;;;;;5031449;28;20021;-57
2023/06/07 05:30:36;;;;;;;1.52;1.42;;;16.30;68.30;;;;;;5026866;28;20025;-58
2023/06/07 05:33:02;;;;;;;3.20;1.35;;;16.40;68.10;;;;;;5037562;28;20029;-62
2023/06/07 05:35:27;;;;;;;1.48;1.15;;;16.50;68.00;;;;;;5030842;28;20376;-58
2023/06/07 05:37:53;;;;;;;2.58;1.30;;;16.60;68.00;;;;;;5027662;28;20043;-58
2023/06/07 05:40:19;;;;;;;2.25;1.42;;;16.70;67.80;;;;;;5030810;28;20136;-59
2023/06/07 05:42:50;;;;;;;3.70;1.23;;;16.70;67.60;;;;;;5032011;28;20030;-58
2023/06/07 05:45:16;;;;;;;2.10;1.45;;;16.70;67.50;;;;;;5029082;28;20044;-58
2023/06/07 05:47:43;;;;;;;6.45;1.73;;;16.70;67.50;;;;;;5030775;28;20068;-58
2023/06/07 05:50:10;;;;;;;3.08;1.83;;;16.70;67.50;;;;;;5031393;28;20048;-62
2023/06/07 05:52:37;;;;;;;5.03;1.70;;;16.70;67.40;;;;;;5030181;28;20119;-63
2023/06/07 05:55:03;;;;;;;1.30;1.20;;;16.70;67.50;;;;;;5029189;28;20427;-63
2023/06/07 05:57:29;;;;;;;2.65;1.60;;;16.60;67.50;;;;;;5029728;28;20439;-59
2023/06/07 05:59:55;;;;;;;2.42;1.35;;;16.60;67.50;;;;;;5024332;28;20033;-63
2023/06/07 06:02:23;;;;;;;2.75;2.03;;;16.60;67.60;;;;;;5031350;28;20405;-63
2023/06/07 06:04:49;;;;;;;3.67;1.38;;;16.70;67.70;;;;;;5021817;28;20033;-59
2023/06/07 06:07:17;;;;;;;3.05;1.38;;;16.70;67.70;;;;;;5018992;28;20025;-59
2023/06/07 06:09:42;;;;;;;2.20;1.27;;;16.70;67.70;;;;;;5026005;28;20025;-58
2023/06/07 06:12:09;;;;;;;1.83;1.20;;;16.70;67.60;;;;;;5029683;28;20025;-58
2023/06/07 06:14:34;;;;;;;3.30;1.50;;;16.80;68.20;;;;;;5028398;28;20029;-58
2023/06/07 06:17:00;;;;;;;3.40;1.65;;;16.80;67.60;;;;;;5030287;28;20022;-63
2023/06/07 06:19:26;;;;;;;2.53;1.75;;;16.70;67.60;;;;;;5030424;28;20134;-63
2023/06/07 06:21:51;;;;;;;1.80;1.10;;;16.70;67.70;;;;;;5012625;28;20196;-63
2023/06/07 06:24:17;;;;;;;2.63;1.38;;;16.70;67.80;;;;;;5022544;28;20034;-58
2023/06/07 06:26:42;;;;;;;3.10;1.45;;;16.70;67.70;;;;;;5013400;28;20335;-59
2023/06/07 06:29:08;;;;;;;1.92;1.00;;;16.70;67.80;;;;;;5029251;28;20385;-57
2023/06/07 06:31:34;;;;;;;3.22;1.70;;;16.70;67.90;;;;;;5032068;28;20033;-63
2023/06/07 06:34:00;;;;;;;1.90;1.30;;;16.80;67.80;;;;;;5029436;28;20123;-59
2023/06/07 06:36:26;;;;;;;2.65;1.60;;;16.90;67.70;;;;;;5029613;28;20633;-58
2023/06/07 06:38:52;;;;;;;3.10;1.42;;;16.90;67.60;;;;;;5029058;28;20183;-58
2023/06/07 06:41:18;;;;;;;2.75;1.50;;;16.90;67.50;;;;;;5031087;28;20029;-58
2023/06/07 06:43:43;;;;;;;2.25;1.23;;;16.90;67.50;;;;;;5026187;28;20299;-59
2023/06/07 06:46:10;;;;;;;3.10;1.52;;;16.90;67.50;;;;;;5028701;28;20113;-59
2023/06/07 06:48:37;;;;;;;5.72;1.90;;;16.80;67.70;;;;;;5028888;28;20393;-63
2023/06/07 06:51:03;;;;;;;5.45;1.70;;;16.80;67.90;;;;;;5037600;28;20025;-58
2023/06/07 06:53:28;;;;;;;6.90;2.30;;;16.80;67.90;;;;;;5035398;28;20159;-58
2023/06/07 06:55:54;;;;;;;5.10;1.90;;;16.80;68.10;;;;;;5037826;28;20111;-58
2023/06/07 06:58:20;;;;;;;4.20;1.90;;;16.80;68.10;;;;;;5037739;28;20037;-63
2023/06/07 07:00:46;;;;;;;2.13;1.30;;;16.80;68.00;;;;;;5030941;28;20365;-63
2023/06/07 07:03:11;;;;;;;2.58;1.88;;;16.90;67.90;;;;;;5030222;28;20061;-63
2023/06/07 07:05:37;;;;;;;3.08;1.65;;;17.00;67.70;;;;;;5039949;28;20029;-63
2023/06/07 07:08:03;;;;;;;3.03;1.48;;;17.10;67.60;;;;;;5035188;28;20461;-59
2023/06/07 07:10:29;;;;;;;3.42;1.88;;;17.20;67.50;;;;;;5039768;28;20143;-62
2023/06/07 07:12:54;;;;;;;3.83;1.50;;;17.20;67.40;;;;;;5044922;28;20384;-63
2023/06/07 07:15:20;;;;;;;3.03;1.40;;;17.20;67.30;;;;;;5034607;28;20075;-63
2023/06/07 07:17:48;;;;;;;2.33;1.20;;;17.20;67.30;;;;;;5037180;28;20032;-63
2023/06/07 07:20:16;;;;;;;2.33;1.40;;;17.20;67.20;;;;;;5029987;28;20475;-63
2023/06/07 07:22:43;;;;;;;2.25;1.20;;;17.30;67.30;;;;;;5029276;28;20105;-58
2023/06/07 07:25:10;;;;;;;4.63;1.63;;;17.30;67.00;;;;;;5023721;28;20036;-63
2023/06/07 07:27:36;;;;;;;7.03;2.40;;;17.30;67.10;;;;;;5028280;28;20056;-63
2023/06/07 07:30:05;;;;;;;5.10;1.70;;;17.30;67.00;;;;;;5035120;28;20053;-62
2023/06/07 07:32:31;;;;;;;3.90;1.95;;;17.30;66.90;;;;;;5027575;28;20064;-63
2023/06/07 07:34:56;;;;;;;8.70;1.98;;;17.30;66.80;;;;;;5028648;28;20112;-63
2023/06/07 07:37:22;;;;;;;3.53;1.48;;;17.40;67.00;;;;;;5029924;28;20136;-63
2023/06/07 07:39:48;;;;;;;4.50;1.40;;;17.50;66.80;;;;;;5027194;28;20034;-63
2023/06/07 07:42:14;;;;;;;4.43;1.88;;;17.70;66.40;;;;;;5028886;28;20374;-58
2023/06/07 07:44:40;;;;;;;7.78;1.67;;;17.80;66.10;;;;;;5034632;28;20413;-62
2023/06/07 07:47:07;;;;;;;1.83;1.55;;;18.00;65.80;;;;;;5030060;28;20017;-57
2023/06/07 07:49:33;;;;;;;3.47;1.40;;;18.10;65.50;;;;;;5030164;28;20426;-63
2023/06/07 07:51:58;;;;;;;2.25;1.38;;;18.20;65.20;;;;;;5019047;28;20025;-58
2023/06/07 07:54:25;;;;;;;4.38;1.70;;;18.40;65.00;;;;;;5028010;28;20030;-58
2023/06/07 07:56:51;;;;;;;2.97;1.65;;;18.60;64.70;;;;;;5012733;28;20455;-64
2023/06/07 07:59:16;;;;;;;3.65;1.48;;;18.90;64.40;;;;;;5025649;28;20026;-64
2023/06/07 08:01:42;;;;;;;5.95;2.22;;;18.90;63.90;;;;;;5023955;28;20408;-64
2023/06/07 08:04:08;;;;;;;2.75;1.27;;;19.00;63.80;;;;;;5028535;28;20021;-64
2023/06/07 08:06:33;;;;;;;6.30;1.73;;;19.00;63.70;;;;;;5022131;28;20412;-63
2023/06/07 08:08:59;;;;;;;2.95;1.25;;;19.20;63.60;;;;;;5025803;28;20539;-59
2023/06/07 08:11:25;;;;;;;2.45;1.60;;;19.40;63.20;;;;;;5027154;28;20128;-59
2023/06/07 08:13:51;;;;;;;1.42;0.98;;;19.50;62.80;;;;;;5024058;28;20033;-62
2023/06/07 08:16:17;;;;;;;2.40;1.33;;;19.60;62.50;;;;;;5024088;28;20051;-58
2023/06/07 08:18:49;;;;;;;3.00;1.48;;;19.90;62.40;;;;;;5023669;28;20037;-58
2023/06/07 08:21:15;;;;;;;4.85;1.15;;;20.10;62.10;;;;;;5025809;28;20075;-59
2023/06/07 08:23:43;;;;;;;3.08;1.42;;;20.20;61.60;;;;;;5032510;28;20489;-59
2023/06/07 08:26:09;;;;;;;2.13;0.90;;;20.30;61.10;;;;;;5026814;28;20491;-58
2023/06/07 08:28:35;;;;;;;3.83;1.77;;;20.40;60.90;;;;;;5033587;28;20034;-58
2023/06/07 08:31:03;;;;;;;3.15;1.17;;;20.40;60.70;;;;;;5029203;28;20437;-58
2023/06/07 08:33:29;;;;;;;1.20;0.82;;;20.50;60.70;;;;;;5029986;28;20022;-58
2023/06/07 08:35:55;;;;;;;2.75;1.48;;;20.50;60.60;;;;;;5030943;28;20405;-59
2023/06/07 08:38:20;;;;;;;2.33;0.98;;;20.50;60.40;;;;;;5030517;28;20037;-62
2023/06/07 08:40:46;;;;;;;2.08;1.00;;;20.50;60.30;;;;;;5029062;28;20065;-62
2023/06/07 08:43:12;;;;;;;1.98;1.35;;;20.50;60.40;;;;;;5013242;28;20032;-59
2023/06/07 08:45:38;;;;;;;4.13;1.25;;;20.50;60.20;;;;;;5029544;28;20018;-59
2023/06/07 08:48:08;;;;;;;4.10;2.00;;;20.50;60.10;;;;;;5023893;28;20033;-59
2023/06/07 08:50:34;;;;;;;4.35;1.50;;;20.50;60.00;;;;;;5028167;28;20032;-58
2023/06/07 08:53:06;;;;;;;7.10;1.73;;;20.50;60.30;;;;;;5028863;28;20026;-58
2023/06/07 08:55:33;;;;;;;4.03;1.33;;;20.50;60.10;;;;;;5028690;28;20101;-58
2023/06/07 08:57:59;;;;;;;4.03;1.95;;;20.40;60.00;;;;;;5025736;28;20021;-59
2023/06/07 09:00:25;;;;;;;1.45;1.30;;;20.30;60.40;;;;;;5023102;28;20095;-59
2023/06/07 09:02:52;;;;;;;2.55;1.10;;;20.30;60.40;;;;;;5027920;28;20019;-59
2023/06/07 09:05:22;;;;;;;1.75;1.25;;;20.50;60.40;;;;;;5024502;28;20073;-58
2023/06/07 09:07:52;;;;;;;3.58;1.17;;;20.50;60.20;;;;;;5035259;28;20385;-59
2023/06/07 09:10:19;;;;;;;2.65;1.58;;;20.60;60.10;;;;;;5030965;28;20536;-59
2023/06/07 09:12:45;;;;;;;2.33;1.35;;;20.60;60.10;;;;;;5034612;28;20492;-59
2023/06/07 09:15:17;;;;;;;2.42;1.20;;;20.60;60.10;;;;;;5031294;28;20025;-59
2023/06/07 09:17:49;;;;;;;;;;;20.70;60.00;;;;;;5032418;28;20026;-59
2023/06/07 09:20:25;;;;;;;1.75;1.05;;;20.70;60.10;;;;;;5033321;28;19944;-59
2023/06/07 09:23:08;;;;;;;1.90;1.02;;;20.70;60.30;;;;;;5031250;28;20032;-59
2023/06/07 09:25:35;;;;;;;3.33;1.73;;;20.70;60.00;;;;;;5020799;28;20117;-62
2023/06/07 09:28:14;;;;;;;2.22;1.65;;;20.70;59.90;;;;;;5020803;28;20415;-62
2023/06/07 09:31:12;;;;;;;4.30;1.75;;;20.70;60.00;;;;;;5029586;28;20037;-63
2023/06/07 09:33:38;;;;;;;2.72;1.90;;;20.60;60.00;;;;;;5019020;28;20069;-62
2023/06/07 09:36:08;;;;;;;4.45;1.90;;;20.50;60.10;;;;;;5027511;28;20112;-62
2023/06/07 09:38:36;;;;;;;2.33;1.40;;;20.60;60.30;;;;;;5030598;28;20036;-63
2023/06/07 09:41:05;;;;;;;4.25;1.48;;;20.50;60.30;;;;;;5033349;28;20098;-58
2023/06/07 09:43:49;;;;;;;5.72;1.83;;;20.50;60.50;;;;;;5036890;28;20023;-59
2023/06/07 09:46:16;;;;;;;2.33;1.70;;;20.50;60.80;;;;;;5031161;28;20029;-59
2023/06/07 09:48:48;;;;;;;3.90;1.40;;;20.50;60.90;;;;;;5025170;28;20042;-59
2023/06/07 09:51:15;;;;;;;4.10;1.70;;;20.40;60.90;;;;;;5037113;28;20029;-63
2023/06/07 09:54:05;;;;;;;5.05;1.90;;;20.40;61.10;;;;;;5029795;28;20029;-62
2023/06/07 09:56:31;;;;;;;4.20;1.63;;;20.40;61.00;;;;;;5026732;28;20056;-63
2023/06/07 09:59:07;;;;;;;2.53;1.65;;;20.30;60.90;;;;;;5027753;28;20111;-62
2023/06/07 10:01:37;;;;;;;4.97;2.10;;;20.30;61.10;;;;;;5025624;28;20084;-58
2023/06/07 10:04:05;;;;;;;1.80;1.17;;;20.20;61.10;;;;;;5025710;28;20036;-62
2023/06/07 10:06:32;;;;;;;2.95;1.45;;;20.30;61.20;;;;;;5026449;28;20022;-63
2023/06/07 10:09:04;;;;;;;4.05;1.58;;;20.30;61.10;;;;;;5028315;28;20113;-63
2023/06/07 10:11:34;;;;;;;4.00;1.20;;;20.40;61.00;;;;;;5034281;28;20029;-59
2023/06/07 10:14:02;;;;;;;4.47;1.35;;;20.50;61.00;;;;;;5031787;28;20497;-59
2023/06/07 10:16:33;;;;;;;2.22;1.70;;;20.60;61.00;;;;;;5030045;28;20018;-63
2023/06/07 10:19:25;;;;;;;2.20;1.33;;;20.70;60.70;;;;;;5030565;28;20030;-63
2023/06/07 10:21:53;;;;;;;3.53;1.92;;;20.80;60.40;;;;;;5025600;28;20034;-63
2023/06/07 10:24:24;;;;;;;2.35;1.70;;;20.90;60.00;;;;;;5028952;28;20022;-62
2023/06/07 10:26:57;;;;;;;3.38;1.73;;;21.00;59.90;;;;;;5024006;28;20051;-63
2023/06/07 10:30:02;;;;;;;5.93;1.85;;;21.20;59.80;;;;;;5030836;28;20041;-62
2023/06/07 10:32:30;;;;;;;2.92;1.73;;;21.40;59.50;;;;;;5026313;28;20102;-63
2023/06/07 10:34:56;;;;;;;4.22;1.80;;;21.70;58.80;;;;;;5032555;28;20026;-58
2023/06/07 10:37:21;;;;;;;5.47;1.20;;;21.90;58.40;;;;;;5031628;28;20060;-63
2023/06/07 10:39:48;;;;;;;3.25;1.40;;;22.10;58.10;;;;;;5032561;28;20033;-62
2023/06/07 10:42:15;;;;;;;2.78;1.85;;;22.20;57.80;;;;;;5033620;28;20026;-63
2023/06/07 10:44:42;;;;;;;3.55;2.30;;;22.40;57.60;;;;;;5033518;28;20495;-59
2023/06/07 10:47:27;;;;;;;3.38;1.20;;;22.50;56.90;;;;;;5040971;28;20108;-63
2023/06/07 10:49:54;;;;;;;2.80;1.60;;;22.70;57.00;;;;;;5026671;28;20492;-63
2023/06/07 10:52:21;;;;;;;2.63;1.15;;;22.80;56.60;;;;;;5028215;28;20033;-58
2023/06/07 10:54:47;;;;;;;3.72;1.23;;;23.00;56.40;;;;;;5028970;28;20029;-63
2023/06/07 10:57:13;;;;;;;2.10;1.20;;;23.20;56.00;;;;;;5028975;28;20171;-63
2023/06/07 10:59:39;;;;;;;2.22;1.20;;;23.40;55.30;;;;;;5023685;28;20120;-63
2023/06/07 11:02:21;;;;;;;3.25;1.13;;;23.70;55.00;;;;;;5027812;28;20676;-63
2023/06/07 11:04:51;;;;;;;1.38;0.90;;;23.90;53.60;;;;;;5032504;28;20037;-63
2023/06/07 11:07:33;;;;;;;2.08;1.25;;;24.00;54.00;;;;;;5028665;28;20128;-63
2023/06/07 11:10:02;;;;;;;1.80;1.13;;;24.10;54.00;;;;;;5025271;28;20037;-63
2023/06/07 11:12:45;;;;;;;1.55;1.00;;;24.10;53.40;;;;;;5031730;28;20263;-58
2023/06/07 11:15:17;;;;;;;1.33;1.23;;;24.10;53.50;;;;;;5034524;28;20024;-59
2023/06/07 11:17:59;;;;;;;3.70;2.08;;;24.10;53.60;;;;;;5030430;28;20060;-59
2023/06/07 11:20:40;;;;;;;1.27;1.13;;;24.10;53.60;;;;;;5028804;28;20127;-59
2023/06/07 11:23:31;;;;;;;0.85;0.85;;;24.20;53.60;;;;;;5031698;28;20057;-59
2023/06/07 11:26:11;;;;;;;1.73;1.35;;;24.30;53.30;;;;;;5027709;28;20047;-58
2023/06/07 11:28:40;;;;;;;4.30;1.63;;;24.30;53.30;;;;;;5030678;28;20025;-59
2023/06/07 11:31:10;;;;;;;2.05;1.10;;;24.40;53.30;;;;;;5026737;28;20034;-59
2023/06/07 11:33:36;;;;;;;4.63;1.42;;;24.40;53.20;;;;;;5035777;28;20036;-59
2023/06/07 11:36:06;;;;;;;1.67;0.90;;;24.50;53.10;;;;;;5032148;28;20404;-58
2023/06/07 11:38:32;;;;;;;1.63;1.02;;;24.50;53.80;;;;;;5027262;28;20029;-59
2023/06/07 11:40:58;;;;;;;1.67;1.00;;;24.50;53.10;;;;;;5029429;28;20127;-59
2023/06/07 11:43:25;;;;;;;3.53;1.00;;;24.50;53.20;;;;;;5042920;28;20067;-59
2023/06/07 11:45:55;;;;;;;1.55;1.20;;;24.50;53.40;;;;;;5036442;28;20112;-59
2023/06/07 11:48:25;;;;;;;1.83;1.25;;;24.50;53.40;;;;;;5019259;28;20491;-60
2023/06/07 11:50:51;;;;;;;2.20;1.15;;;24.50;53.30;;;;;;5028639;28;20504;-60
2023/06/07 11:53:16;;;;;;;5.05;1.33;;;24.50;53.20;;;;;;5024764;28;20076;-59
2023/06/07 11:55:42;;;;;;;1.75;1.30;;;24.50;53.30;;;;;;5027841;28;20484;-59
2023/06/07 11:58:08;;;;;;;1.42;1.33;;;24.50;53.30;;;;;;5027723;28;20033;-59
2023/06/07 12:00:36;;;;;;;1.45;0.90;;;24.60;53.50;;;;;;5030215;28;20048;-60
2023/06/07 12:03:03;;;;;;;2.58;1.30;;;24.70;53.60;;;;;;5031886;28;20029;-60
2023/06/07 12:05:30;;;;;;;1.35;1.25;;;24.70;53.50;;;;;;5030265;28;20040;-60
2023/06/07 12:08:04;;;;;;;1.52;1.38;;;24.90;53.40;;;;;;5024441;28;20021;-59
2023/06/07 12:10:31;;;;;;;1.45;1.38;;;24.90;53.10;;;;;;5040142;28;20039;-63
2023/06/07 12:13:23;;;;;;;1.70;1.40;;;24.90;52.80;;;;;;5025779;28;20022;-63
2023/06/07 12:15:53;;;;;;;1.42;0.93;;;25.00;52.70;;;;;;5018924;28;20400;-63
2023/06/07 12:18:21;;;;;;;1.98;0.93;;;25.00;52.70;;;;;;5030778;28;20032;-60
2023/06/07 12:20:48;;;;;;;2.05;1.38;;;25.00;52.70;;;;;;5025880;28;20034;-60
2023/06/07 12:23:14;;;;;;;1.83;1.20;;;25.00;52.80;;;;;;5030869;28;20116;-63
2023/06/07 12:25:41;;;;;;;1.88;1.13;;;25.00;52.80;;;;;;5028618;28;20103;-63
2023/06/07 12:28:13;;;;;;;1.55;1.08;;;25.10;52.90;;;;;;5029422;28;20170;-63
2023/06/07 12:30:41;;;;;;;1.02;0.82;;;25.10;53.20;;;;;;5027009;28;20018;-63
2023/06/07 12:33:14;;;;;;;3.67;1.60;;;25.10;53.50;;;;;;5031731;28;20469;-63
2023/06/07 12:35:47;;;;;;;2.00;1.38;;;25.20;53.60;;;;;;5029653;28;20107;-63
2023/06/07 12:38:13;;;;;;;;;;;25.20;54.00;;;;;;5033577;28;20033;-63
2023/06/07 12:40:39;;;;;;;2.15;1.17;;;25.30;54.10;;;;;;5027972;28;20447;-60
2023/06/07 12:43:06;;;;;;;2.72;1.60;;;25.30;53.90;;;;;;5036612;28;20365;-63
2023/06/07 12:45:32;;;;;;;4.95;1.98;;;25.50;53.90;;;;;;5031652;28;20499;-63
2023/06/07 12:47:57;;;;;;;1.13;0.80;;;25.60;53.50;;;;;;5021824;28;20033;-63
2023/06/07 12:50:23;;;;;;;1.60;1.23;;;25.70;53.40;;;;;;5026299;28;20079;-60
2023/06/07 12:52:50;;;;;;;2.72;1.20;;;26.00;53.30;;;;;;5023488;28;20030;-60